createdAt,value
2022-12-29T00:02:48.655Z,1.47
2022-12-29T00:07:52.690Z,1.67
2022-12-29T00:13:13.014Z,1.53
2022-12-29T00:18:15.764Z,1.50
2022-12-29T00:23:40.045Z,1.30
2022-12-29T00:29:00.520Z,1.10
2022-12-29T00:34:21.014Z,0.93
2022-12-29T00:39:42.791Z,0.83
2022-12-29T00:44:45.494Z,0.80
2022-12-29T00:49:48.152Z,1.10
2022-12-29T00:54:52.165Z,0.97
2022-12-29T00:59:54.884Z,1.10
2022-12-29T01:04:57.550Z,1.10
2022-12-29T01:10:15.660Z,1.00
2022-12-29T01:15:18.391Z,1.10
2022-12-29T01:20:21.119Z,1.30
2022-12-29T01:25:25.279Z,1.23
2022-12-29T01:30:27.963Z,1.30
2022-12-29T01:35:30.724Z,1.30
2022-12-29T01:40:34.732Z,1.70
2022-12-29T01:45:37.740Z,1.53
2022-12-29T01:50:43.590Z,1.50
2022-12-29T01:55:51.896Z,1.40
2022-12-29T02:00:54.653Z,1.60
2022-12-29T02:06:03.933Z,1.53
2022-12-29T02:11:08.892Z,1.63
2022-12-29T02:16:23.731Z,1.50
2022-12-29T02:21:50.031Z,1.47
2022-12-29T02:27:19.336Z,1.80
2022-12-29T02:32:32.877Z,1.40
2022-12-29T02:37:44.583Z,1.60
2022-12-29T02:42:51.888Z,1.80
2022-12-29T02:48:03.042Z,1.30
2022-12-29T02:53:09.855Z,1.30
2022-12-29T02:58:21.239Z,1.50
2022-12-29T03:03:35.155Z,1.70
2022-12-29T03:08:46.182Z,1.40
2022-12-29T03:14:10.662Z,1.47
2022-12-29T03:19:19.359Z,1.03
2022-12-29T03:24:24.810Z,1.20
2022-12-29T03:29:31.351Z,1.50
2022-12-29T03:34:37.171Z,1.40
2022-12-29T03:39:40.227Z,2.10
2022-12-29T03:44:45.457Z,1.10
2022-12-29T03:49:50.624Z,1.30
2022-12-29T03:54:53.322Z,1.40
2022-12-29T03:59:56.041Z,1.23
2022-12-29T04:05:00.064Z,1.50
2022-12-29T04:10:02.789Z,1.47
2022-12-29T04:15:07.307Z,1.37
2022-12-29T04:20:29.871Z,1.47
2022-12-29T04:25:33.344Z,1.30
2022-12-29T04:30:37.105Z,1.40
2022-12-29T04:35:41.279Z,1.60
2022-12-29T04:40:45.167Z,1.37
2022-12-29T04:45:48.369Z,1.50
2022-12-29T04:50:52.530Z,1.40
2022-12-29T04:55:55.771Z,1.37
2022-12-29T05:00:58.521Z,1.33
2022-12-29T05:06:02.587Z,1.20
2022-12-29T05:11:06.275Z,0.90
2022-12-29T05:16:09.113Z,1.10
2022-12-29T05:21:13.279Z,1.27
2022-12-29T05:26:15.957Z,1.10
2022-12-29T05:44:58.182Z,1.10
2022-12-29T06:15:43.471Z,1.10
2022-12-29T06:22:04.379Z,1.20
2022-12-29T06:28:01.863Z,1.30
2022-12-29T06:39:53.469Z,1.13
2022-12-29T06:51:58.025Z,1.43
2022-12-29T07:21:59.082Z,1.60
2022-12-29T07:39:03.417Z,1.50
2022-12-29T07:50:22.613Z,1.50
2022-12-29T07:55:38.873Z,1.90
2022-12-29T08:06:36.302Z,1.47
2022-12-29T08:12:02.322Z,1.53
2022-12-29T08:17:47.793Z,1.90
2022-12-29T08:22:50.526Z,1.40
2022-12-29T08:28:40.036Z,1.90
2022-12-29T08:34:06.084Z,3.10
2022-12-29T08:40:26.546Z,1.60
2022-12-29T09:09:36.730Z,1.53
2022-12-29T09:28:43.306Z,1.60
2022-12-29T09:41:43.481Z,1.37
2022-12-29T09:47:43.160Z,1.75
2022-12-29T10:32:38.016Z,1.05
2022-12-29T11:47:49.076Z,0.95
2022-12-29T11:53:29.189Z,1.08
2022-12-29T11:58:50.549Z,1.05
2022-12-29T12:04:43.373Z,1.00
2022-12-29T12:16:14.142Z,1.00
2022-12-29T12:22:03.367Z,1.02
2022-12-29T12:28:46.003Z,1.20
2022-12-29T12:41:26.320Z,1.10
2022-12-29T13:00:17.686Z,1.20
2022-12-29T13:19:00.454Z,1.00
2022-12-29T13:25:39.056Z,0.90
2022-12-29T14:01:57.156Z,1.35
2022-12-29T14:07:57.004Z,1.20
2022-12-29T14:14:04.106Z,1.10
2022-12-29T15:04:39.145Z,1.27
2022-12-29T15:23:03.769Z,1.17
2022-12-29T15:47:25.821Z,5.13
2022-12-29T15:59:18.825Z,0.90
2022-12-29T16:54:52.397Z,0.90
2022-12-29T17:12:44.576Z,0.87
2022-12-29T17:18:22.347Z,0.90
2022-12-29T17:23:59.005Z,0.80
2022-12-29T17:29:23.703Z,0.93
2022-12-29T17:34:27.807Z,0.90
2022-12-29T17:39:30.572Z,0.83
2022-12-29T17:44:33.275Z,4.70
2022-12-29T17:49:37.281Z,5.90
2022-12-29T17:54:44.262Z,3.37
2022-12-29T17:59:47.043Z,12.60
2022-12-29T18:04:51.186Z,8.23
2022-12-29T18:09:53.891Z,7.47
2022-12-29T18:14:57.157Z,6.10
2022-12-29T18:20:01.159Z,7.40
2022-12-29T18:25:04.855Z,2.70
2022-12-29T18:30:08.448Z,1.70
2022-12-29T18:35:18.784Z,1.77
2022-12-29T18:40:21.488Z,1.40
2022-12-29T18:45:25.311Z,1.50
2022-12-29T18:50:29.316Z,1.80
2022-12-29T18:55:32.474Z,1.93
2022-12-29T19:00:35.301Z,1.80
2022-12-29T19:05:41.601Z,1.73
2022-12-29T19:10:46.585Z,1.70
2022-12-29T19:15:49.883Z,2.70
2022-12-29T19:20:57.910Z,2.10
2022-12-29T19:26:00.913Z,1.87
2022-12-29T19:31:04.709Z,2.37
2022-12-29T19:36:10.601Z,3.17
2022-12-29T19:41:15.098Z,3.30
2022-12-29T19:46:20.483Z,3.20
2022-12-29T19:51:25.275Z,4.07
2022-12-29T19:56:28.285Z,3.97
2022-12-29T20:01:34.453Z,3.50
2022-12-29T20:06:39.920Z,3.30
2022-12-29T20:11:43.354Z,2.83
2022-12-29T20:17:09.592Z,2.10
2022-12-29T20:22:12.490Z,2.10
2022-12-29T20:27:17.170Z,2.47
2022-12-29T20:32:27.023Z,2.70
2022-12-29T20:37:31.412Z,2.57
2022-12-29T20:42:34.853Z,2.83
2022-12-29T20:47:37.719Z,2.73
2022-12-29T20:52:41.786Z,2.50
2022-12-29T20:58:21.838Z,2.67
2022-12-29T21:03:09.274Z,2.60
2022-12-29T21:08:13.981Z,2.70
2022-12-29T21:13:18.029Z,1.67
2022-12-29T21:18:21.360Z,1.90
2022-12-29T21:23:27.700Z,1.50
2022-12-29T21:28:30.814Z,1.07
2022-12-29T21:33:34.080Z,0.83
2022-12-29T21:38:45.798Z,0.67
2022-12-29T21:44:13.153Z,0.90
2022-12-29T21:49:16.325Z,0.70
2022-12-29T23:20:48.019Z,0.77
2022-12-29T23:25:51.994Z,0.60
2022-12-29T23:31:32.292Z,0.83
2022-12-29T23:43:04.219Z,0.90
2022-12-29T23:54:46.282Z,0.73
